createdAt,value
2022-11-20T00:00:05.661Z,6.35
2022-11-20T00:05:27.374Z,6.34
2022-11-20T00:10:49.051Z,6.39
2022-11-20T00:16:12.727Z,6.42
2022-11-20T00:21:34.446Z,6.32
2022-11-20T00:26:56.137Z,6.34
2022-11-20T00:32:17.897Z,6.33
2022-11-20T00:37:39.616Z,6.31
2022-11-20T00:43:01.311Z,6.43
2022-11-20T00:48:23.002Z,6.52
2022-11-20T00:53:45.465Z,6.70
2022-11-20T00:59:07.239Z,6.80
2022-11-20T01:04:28.989Z,6.96
2022-11-20T01:09:50.682Z,6.82
2022-11-20T01:15:12.372Z,6.65
2022-11-20T01:20:37.656Z,6.61
2022-11-20T01:26:01.829Z,6.85
2022-11-20T01:31:29.541Z,6.85
2022-11-20T01:36:52.161Z,6.93
2022-11-20T01:42:32.560Z,6.82
2022-11-20T01:47:54.253Z,6.82
2022-11-20T01:53:19.505Z,6.97
2022-11-20T01:58:48.453Z,6.94
2022-11-20T02:04:11.407Z,7.12
2022-11-20T02:09:33.117Z,6.97
2022-11-20T02:14:54.895Z,7.07
2022-11-20T02:20:16.816Z,7.09
2022-11-20T02:25:40.233Z,6.99
2022-11-20T02:31:01.955Z,6.86
2022-11-20T02:36:27.279Z,6.44
2022-11-20T02:41:48.981Z,6.45
2022-11-20T02:47:11.009Z,6.76
2022-11-20T02:52:32.882Z,6.78
2022-11-20T02:57:54.544Z,6.95
2022-11-20T03:03:16.255Z,7.01
2022-11-20T03:08:37.953Z,7.09
2022-11-20T03:14:03.258Z,7.15
2022-11-20T03:19:25.037Z,7.07
2022-11-20T03:24:46.999Z,7.09
2022-11-20T03:30:09.368Z,7.15
2022-11-20T03:35:31.082Z,7.16
2022-11-20T03:40:59.472Z,7.09
2022-11-20T03:46:21.541Z,7.12
2022-11-20T03:51:43.249Z,7.14
2022-11-20T03:57:04.904Z,7.08
2022-11-20T04:02:26.559Z,7.11
2022-11-20T04:07:48.231Z,7.04
2022-11-20T04:13:09.892Z,7.09
2022-11-20T04:18:31.584Z,7.05
2022-11-20T04:23:54.887Z,6.97
2022-11-20T04:29:16.527Z,6.94
2022-11-20T04:34:38.208Z,6.94
2022-11-20T04:39:59.901Z,6.99
2022-11-20T04:45:22.155Z,6.97
2022-11-20T04:50:43.807Z,6.89
2022-11-20T04:56:10.785Z,6.86
2022-11-20T05:01:33.517Z,6.77
2022-11-20T05:06:55.281Z,6.84
2022-11-20T05:12:16.978Z,6.85
2022-11-20T05:17:38.657Z,6.82
2022-11-20T05:23:00.324Z,6.84
2022-11-20T05:28:22.761Z,7.04
2022-11-20T05:33:45.635Z,6.97
2022-11-20T05:39:07.373Z,7.13
2022-11-20T05:44:29.056Z,7.02
2022-11-20T05:49:50.724Z,7.02
2022-11-20T05:55:12.409Z,7.09
2022-11-20T06:00:34.073Z,7.18
2022-11-20T06:05:55.725Z,7.14
2022-11-20T06:11:18.113Z,7.22
2022-11-20T06:16:39.792Z,7.18
2022-11-20T06:22:01.509Z,7.26
2022-11-20T06:27:23.208Z,7.27
2022-11-20T06:32:44.912Z,7.27
2022-11-20T06:38:06.597Z,7.20
2022-11-20T06:43:29.827Z,7.25
2022-11-20T06:48:51.978Z,7.34
2022-11-20T06:54:13.639Z,7.39
2022-11-20T06:59:35.316Z,7.32
2022-11-20T07:04:56.998Z,7.38
2022-11-20T07:10:18.695Z,7.30
2022-11-20T07:15:40.435Z,7.25
2022-11-20T07:21:03.813Z,7.36
2022-11-20T07:26:25.531Z,7.46
2022-11-20T07:31:47.309Z,7.49
2022-11-20T07:37:10.500Z,7.54
2022-11-20T07:42:32.428Z,7.55
2022-11-20T07:47:54.133Z,7.50
2022-11-20T07:53:21.751Z,7.53
2022-11-20T07:58:43.487Z,7.70
2022-11-20T08:04:05.263Z,7.73
2022-11-20T08:09:26.933Z,7.69
2022-11-20T08:14:48.613Z,7.78
2022-11-20T08:20:10.629Z,7.76
2022-11-20T08:25:34.361Z,7.76
2022-11-20T08:31:03.795Z,7.80
2022-11-20T08:36:26.019Z,7.95
2022-11-20T08:41:47.708Z,7.92
2022-11-20T08:47:09.400Z,7.99
2022-11-20T08:52:32.580Z,8.10
2022-11-20T08:57:56.143Z,8.21
2022-11-20T09:03:17.933Z,8.26
2022-11-20T09:08:40.377Z,8.26
2022-11-20T09:14:03.654Z,8.35
2022-11-20T09:19:35.487Z,8.39
2022-11-20T09:24:57.689Z,8.39
2022-11-20T09:30:19.511Z,8.38
2022-11-20T09:35:41.207Z,8.48
2022-11-20T09:41:18.592Z,8.50
2022-11-20T09:47:02.458Z,8.58
2022-11-20T09:52:42.590Z,8.54
2022-11-20T09:58:08.398Z,8.48
2022-11-20T10:04:14.678Z,8.44
2022-11-20T10:09:40.049Z,8.43
2022-11-20T10:15:07.479Z,8.43
2022-11-20T10:21:02.397Z,8.54
2022-11-20T10:26:38.229Z,8.51
2022-11-20T10:32:08.635Z,8.43
2022-11-20T10:37:34.857Z,8.25
2022-11-20T10:43:14.466Z,7.98
2022-11-20T10:48:37.407Z,7.98
2022-11-20T10:54:06.575Z,7.75
2022-11-20T10:59:48.723Z,7.72
2022-11-20T11:05:45.344Z,7.71
2022-11-20T11:11:28.320Z,7.77
2022-11-20T11:16:59.191Z,7.71
2022-11-20T11:22:20.894Z,7.80
2022-11-20T11:27:51.031Z,7.85
2022-11-20T11:33:20.785Z,7.74
2022-11-20T11:38:44.089Z,7.83
2022-11-20T11:44:38.152Z,7.75
2022-11-20T11:50:09.420Z,7.79
2022-11-20T11:55:50.172Z,7.81
2022-11-20T12:01:37.323Z,7.92
2022-11-20T12:07:24.292Z,8.12
2022-11-20T12:12:53.212Z,8.20
2022-11-20T12:18:21.085Z,8.20
2022-11-20T12:23:46.735Z,8.19
2022-11-20T12:29:15.152Z,8.16
2022-11-20T12:35:01.199Z,8.25
2022-11-20T12:40:55.870Z,8.24
2022-11-20T12:46:31.148Z,8.50
2022-11-20T12:52:16.668Z,8.73
2022-11-20T12:57:48.360Z,8.87
2022-11-20T13:03:10.057Z,8.87
2022-11-20T13:08:37.674Z,8.97
2022-11-20T13:14:12.187Z,9.05
2022-11-20T13:19:34.541Z,9.09
2022-11-20T13:24:56.317Z,9.08
2022-11-20T13:30:20.821Z,9.06
2022-11-20T13:35:43.557Z,8.86
2022-11-20T13:41:25.376Z,8.84
2022-11-20T13:46:48.132Z,8.99
2022-11-20T13:52:38.778Z,9.06
2022-11-20T13:58:03.136Z,9.06
2022-11-20T14:03:51.233Z,9.01
2022-11-20T14:09:32.700Z,8.80
2022-11-20T14:14:55.408Z,8.68
2022-11-20T14:20:19.753Z,8.60
2022-11-20T14:25:45.976Z,8.59
2022-11-20T14:31:26.015Z,8.49
2022-11-20T14:36:48.304Z,8.32
2022-11-20T14:42:22.784Z,8.38
2022-11-20T14:47:45.248Z,8.19
2022-11-20T14:53:26.372Z,8.32
2022-11-20T14:58:57.187Z,8.33
2022-11-20T15:04:18.894Z,8.23
2022-11-20T15:09:40.609Z,8.04
2022-11-20T15:15:04.265Z,8.01
2022-11-20T15:20:31.023Z,8.01
2022-11-20T15:25:52.844Z,7.98
2022-11-20T15:31:16.980Z,7.89
2022-11-20T15:36:39.444Z,8.24
2022-11-20T15:42:01.129Z,8.09
2022-11-20T15:47:30.808Z,7.94
2022-11-20T15:52:52.592Z,7.82
2022-11-20T15:58:14.430Z,7.73
2022-11-20T16:03:36.256Z,7.67
2022-11-20T16:08:57.954Z,7.60
2022-11-20T16:14:38.279Z,7.58
2022-11-20T16:19:59.990Z,7.59
2022-11-20T16:25:21.666Z,7.56
2022-11-20T16:30:43.394Z,7.65
2022-11-20T16:36:13.515Z,7.63
2022-11-20T16:41:35.456Z,7.65
2022-11-20T16:46:57.124Z,7.61
2022-11-20T16:52:18.837Z,7.56
2022-11-20T16:57:42.545Z,7.64
2022-11-20T17:03:05.605Z,7.64
2022-11-20T17:08:30.420Z,7.66
2022-11-20T17:13:52.745Z,7.64
2022-11-20T17:19:14.851Z,7.66
2022-11-20T17:24:36.631Z,7.74
2022-11-20T17:29:58.994Z,7.75
2022-11-20T17:35:20.647Z,7.87
2022-11-20T17:40:42.299Z,7.94
2022-11-20T17:46:09.209Z,7.91
2022-11-20T17:51:34.869Z,8.04
2022-11-20T17:57:15.036Z,8.01
2022-11-20T18:02:36.750Z,8.01
2022-11-20T18:07:58.397Z,8.01
2022-11-20T18:13:20.105Z,8.08
2022-11-20T18:18:41.766Z,8.10
2022-11-20T18:24:03.718Z,8.01
2022-11-20T18:29:26.703Z,8.02
2022-11-20T18:34:49.126Z,7.97
2022-11-20T18:40:11.513Z,7.91
2022-11-20T18:45:33.205Z,7.90
2022-11-20T18:50:54.917Z,7.94
2022-11-20T18:56:16.614Z,7.92
2022-11-20T19:01:39.028Z,7.59
2022-11-20T19:07:01.067Z,7.64
2022-11-20T19:12:22.857Z,7.45
2022-11-20T19:17:44.606Z,7.44
2022-11-20T19:23:06.410Z,7.60
2022-11-20T19:28:31.436Z,7.71
2022-11-20T19:33:54.792Z,7.47
2022-11-20T19:39:16.908Z,7.18
2022-11-20T19:44:38.647Z,7.34
2022-11-20T19:50:00.350Z,7.34
2022-11-20T19:55:22.166Z,7.36
2022-11-20T20:00:43.946Z,7.39
2022-11-20T20:06:14.406Z,7.39
2022-11-20T20:11:36.631Z,7.42
2022-11-20T20:16:58.380Z,7.43
2022-11-20T20:22:20.290Z,7.52
2022-11-20T20:27:42.027Z,7.42
2022-11-20T20:33:03.847Z,7.39
2022-11-20T20:38:25.602Z,7.52
2022-11-20T20:44:06.389Z,7.35
2022-11-20T20:49:28.073Z,7.39
2022-11-20T20:54:49.863Z,7.47
2022-11-20T21:00:11.860Z,7.33
2022-11-20T21:05:33.573Z,7.34
2022-11-20T21:11:00.737Z,7.30
2022-11-20T21:16:22.495Z,7.28
2022-11-20T21:21:58.999Z,7.29
2022-11-20T21:27:20.667Z,7.29
2022-11-20T21:32:42.347Z,7.42
2022-11-20T21:38:04.285Z,7.20
2022-11-20T21:43:26.032Z,7.26
2022-11-20T21:48:48.039Z,7.29
2022-11-20T21:54:10.530Z,7.28
2022-11-20T21:59:32.230Z,7.30
2022-11-20T22:04:53.916Z,7.11
2022-11-20T22:10:18.640Z,7.17
2022-11-20T22:15:59.893Z,7.08
2022-11-20T22:21:24.352Z,7.15
2022-11-20T22:26:46.402Z,7.09
2022-11-20T22:32:08.063Z,7.12
2022-11-20T22:37:29.809Z,7.24
2022-11-20T22:42:51.581Z,7.29
2022-11-20T22:48:13.288Z,7.36
2022-11-20T22:53:35.665Z,7.33
2022-11-20T22:58:57.500Z,7.24
2022-11-20T23:04:19.252Z,7.09
2022-11-20T23:09:40.938Z,7.17
2022-11-20T23:15:02.656Z,7.28
2022-11-20T23:20:24.390Z,7.26
2022-11-20T23:25:46.126Z,7.09
2022-11-20T23:31:09.187Z,7.25
2022-11-20T23:36:30.880Z,7.19
2022-11-20T23:41:52.519Z,7.07
2022-11-20T23:47:14.180Z,7.09
2022-11-20T23:52:36.117Z,7.16
2022-11-20T23:57:58.248Z,7.17
